sensor_id;sensor_type;location;lat;lon;timestamp;temperature;humidity
80290;SHT30;69592;44.804;-0.550;2023-10-09T00:02:10;18.12;82.72
80290;SHT30;69592;44.804;-0.550;2023-10-09T00:04:37;18.02;83.29
80290;SHT30;69592;44.804;-0.550;2023-10-09T00:07:05;17.98;83.39
80290;SHT30;69592;44.804;-0.550;2023-10-09T00:09:35;17.93;83.85
80290;SHT30;69592;44.804;-0.550;2023-10-09T00:12:16;17.89;83.78
80290;SHT30;69592;44.804;-0.550;2023-10-09T00:14:42;17.84;83.98
80290;SHT30;69592;44.804;-0.550;2023-10-09T00:17:14;17.88;83.21
80290;SHT30;69592;44.804;-0.550;2023-10-09T00:19:39;17.92;83.27
80290;SHT30;69592;44.804;-0.550;2023-10-09T00:22:07;17.89;83.70
80290;SHT30;69592;44.804;-0.550;2023-10-09T00:24:35;17.86;83.67
80290;SHT30;69592;44.804;-0.550;2023-10-09T00:27:01;17.88;83.34
80290;SHT30;69592;44.804;-0.550;2023-10-09T00:29:44;17.88;83.65
80290;SHT30;69592;44.804;-0.550;2023-10-09T00:32:13;17.84;84.16
80290;SHT30;69592;44.804;-0.550;2023-10-09T00:34:42;17.75;84.44
80290;SHT30;69592;44.804;-0.550;2023-10-09T00:37:11;17.72;84.43
80290;SHT30;69592;44.804;-0.550;2023-10-09T00:39:51;17.72;83.90
80290;SHT30;69592;44.804;-0.550;2023-10-09T00:42:25;17.72;84.33
80290;SHT30;69592;44.804;-0.550;2023-10-09T00:44:56;17.68;84.19
80290;SHT30;69592;44.804;-0.550;2023-10-09T00:47:21;17.55;83.77
80290;SHT30;69592;44.804;-0.550;2023-10-09T00:50:03;17.47;83.92
80290;SHT30;69592;44.804;-0.550;2023-10-09T00:52:37;17.45;83.83
80290;SHT30;69592;44.804;-0.550;2023-10-09T00:55:15;17.44;83.93
80290;SHT30;69592;44.804;-0.550;2023-10-09T00:57:47;17.51;83.67
80290;SHT30;69592;44.804;-0.550;2023-10-09T01:00:24;17.51;83.17
80290;SHT30;69592;44.804;-0.550;2023-10-09T01:03:16;17.54;83.40
80290;SHT30;69592;44.804;-0.550;2023-10-09T01:05:42;17.51;83.65
80290;SHT30;69592;44.804;-0.550;2023-10-09T01:08:21;17.45;83.99
80290;SHT30;69592;44.804;-0.550;2023-10-09T01:11:00;17.44;83.45
80290;SHT30;69592;44.804;-0.550;2023-10-09T01:13:39;17.42;84.06
80290;SHT30;69592;44.804;-0.550;2023-10-09T01:16:07;17.42;83.80
80290;SHT30;69592;44.804;-0.550;2023-10-09T01:18:42;17.45;84.22
80290;SHT30;69592;44.804;-0.550;2023-10-09T01:21:09;17.34;84.83
80290;SHT30;69592;44.804;-0.550;2023-10-09T01:23:43;17.32;84.80
80290;SHT30;69592;44.804;-0.550;2023-10-09T01:26:48;17.28;84.74
80290;SHT30;69592;44.804;-0.550;2023-10-09T01:29:20;17.24;84.86
80290;SHT30;69592;44.804;-0.550;2023-10-09T01:31:51;17.24;85.03
80290;SHT30;69592;44.804;-0.550;2023-10-09T01:34:30;17.14;85.14
80290;SHT30;69592;44.804;-0.550;2023-10-09T01:37:12;17.06;85.09
80290;SHT30;69592;44.804;-0.550;2023-10-09T01:39:47;17.06;85.12
80290;SHT30;69592;44.804;-0.550;2023-10-09T01:42:17;17.09;84.44
80290;SHT30;69592;44.804;-0.550;2023-10-09T01:44:56;17.10;84.32
80290;SHT30;69592;44.804;-0.550;2023-10-09T01:47:23;17.02;84.27
80290;SHT30;69592;44.804;-0.550;2023-10-09T01:49:51;17.00;84.59
80290;SHT30;69592;44.804;-0.550;2023-10-09T01:52:19;17.04;84.67
80290;SHT30;69592;44.804;-0.550;2023-10-09T01:54:46;16.94;84.63
80290;SHT30;69592;44.804;-0.550;2023-10-09T01:57:17;16.94;84.30
80290;SHT30;69592;44.804;-0.550;2023-10-09T01:59:47;16.86;84.50
80290;SHT30;69592;44.804;-0.550;2023-10-09T02:02:15;16.91;84.14
80290;SHT30;69592;44.804;-0.550;2023-10-09T02:05:05;16.89;84.30
80290;SHT30;69592;44.804;-0.550;2023-10-09T02:07:39;16.84;84.71
80290;SHT30;69592;44.804;-0.550;2023-10-09T02:10:17;16.81;84.89
80290;SHT30;69592;44.804;-0.550;2023-10-09T02:12:58;16.79;84.91
80290;SHT30;69592;44.804;-0.550;2023-10-09T02:15:28;16.80;84.98
80290;SHT30;69592;44.804;-0.550;2023-10-09T02:18:06;16.76;85.04
80290;SHT30;69592;44.804;-0.550;2023-10-09T02:21:05;16.70;85.27
80290;SHT30;69592;44.804;-0.550;2023-10-09T02:23:35;16.66;85.15
80290;SHT30;69592;44.804;-0.550;2023-10-09T02:26:11;16.60;85.22
80290;SHT30;69592;44.804;-0.550;2023-10-09T02:28:44;16.56;85.41
80290;SHT30;69592;44.804;-0.550;2023-10-09T02:31:11;16.56;85.50
80290;SHT30;69592;44.804;-0.550;2023-10-09T02:33:37;16.55;85.57
80290;SHT30;69592;44.804;-0.550;2023-10-09T02:36:05;16.59;85.42
80290;SHT30;69592;44.804;-0.550;2023-10-09T02:38:32;16.56;85.63
80290;SHT30;69592;44.804;-0.550;2023-10-09T02:41:06;16.58;85.54
80290;SHT30;69592;44.804;-0.550;2023-10-09T02:43:33;16.53;85.67
80290;SHT30;69592;44.804;-0.550;2023-10-09T02:46:06;16.55;85.60
80290;SHT30;69592;44.804;-0.550;2023-10-09T02:48:39;16.55;85.83
80290;SHT30;69592;44.804;-0.550;2023-10-09T02:51:10;16.48;86.15
80290;SHT30;69592;44.804;-0.550;2023-10-09T02:53:42;16.44;86.51
80290;SHT30;69592;44.804;-0.550;2023-10-09T02:56:07;16.35;85.70
80290;SHT30;69592;44.804;-0.550;2023-10-09T02:58:40;16.21;85.51
80290;SHT30;69592;44.804;-0.550;2023-10-09T03:01:12;16.19;85.49
80290;SHT30;69592;44.804;-0.550;2023-10-09T03:03:40;16.15;85.73
80290;SHT30;69592;44.804;-0.550;2023-10-09T03:06:10;16.24;85.49
80290;SHT30;69592;44.804;-0.550;2023-10-09T03:08:38;16.26;85.11
80290;SHT30;69592;44.804;-0.550;2023-10-09T03:11:07;16.26;85.37
80290;SHT30;69592;44.804;-0.550;2023-10-09T03:13:41;16.21;85.63
80290;SHT30;69592;44.804;-0.550;2023-10-09T03:16:11;16.25;85.58
80290;SHT30;69592;44.804;-0.550;2023-10-09T03:18:52;16.24;85.54
80290;SHT30;69592;44.804;-0.550;2023-10-09T03:21:19;16.24;86.05
80290;SHT30;69592;44.804;-0.550;2023-10-09T03:23:48;16.24;85.99
80290;SHT30;69592;44.804;-0.550;2023-10-09T03:26:19;16.21;85.92
80290;SHT30;69592;44.804;-0.550;2023-10-09T03:28:46;16.21;86.46
80290;SHT30;69592;44.804;-0.550;2023-10-09T03:31:12;16.14;86.22
80290;SHT30;69592;44.804;-0.550;2023-10-09T03:33:39;16.14;86.08
80290;SHT30;69592;44.804;-0.550;2023-10-09T03:36:04;16.09;86.14
80290;SHT30;69592;44.804;-0.550;2023-10-09T03:38:37;16.09;86.20
80290;SHT30;69592;44.804;-0.550;2023-10-09T03:41:05;16.00;86.40
80290;SHT30;69592;44.804;-0.550;2023-10-09T03:43:38;16.04;86.35
80290;SHT30;69592;44.804;-0.550;2023-10-09T03:46:08;16.00;86.44
80290;SHT30;69592;44.804;-0.550;2023-10-09T03:48:54;15.95;86.47
80290;SHT30;69592;44.804;-0.550;2023-10-09T03:51:23;15.88;86.57
80290;SHT30;69592;44.804;-0.550;2023-10-09T03:53:50;15.87;86.50
80290;SHT30;69592;44.804;-0.550;2023-10-09T03:56:16;15.95;86.36
80290;SHT30;69592;44.804;-0.550;2023-10-09T03:58:44;15.95;86.56
80290;SHT30;69592;44.804;-0.550;2023-10-09T04:01:15;15.95;86.48
80290;SHT30;69592;44.804;-0.550;2023-10-09T04:04:00;15.95;86.32
80290;SHT30;69592;44.804;-0.550;2023-10-09T04:06:26;15.88;86.43
80290;SHT30;69592;44.804;-0.550;2023-10-09T04:09:11;15.91;85.82
80290;SHT30;69592;44.804;-0.550;2023-10-09T04:11:49;15.93;85.57
80290;SHT30;69592;44.804;-0.550;2023-10-09T04:14:41;15.90;85.68
80290;SHT30;69592;44.804;-0.550;2023-10-09T04:17:19;15.93;85.91
80290;SHT30;69592;44.804;-0.550;2023-10-09T04:20:01;15.88;85.65
80290;SHT30;69592;44.804;-0.550;2023-10-09T04:22:45;15.85;86.25
80290;SHT30;69592;44.804;-0.550;2023-10-09T04:25:25;15.67;86.79
80290;SHT30;69592;44.804;-0.550;2023-10-09T04:27:55;15.71;86.82
80290;SHT30;69592;44.804;-0.550;2023-10-09T04:30:44;15.74;86.61
80290;SHT30;69592;44.804;-0.550;2023-10-09T04:33:12;15.68;86.97
80290;SHT30;69592;44.804;-0.550;2023-10-09T04:36:09;15.63;87.18
80290;SHT30;69592;44.804;-0.550;2023-10-09T04:38:42;15.63;87.25
80290;SHT30;69592;44.804;-0.550;2023-10-09T04:41:21;15.63;87.06
80290;SHT30;69592;44.804;-0.550;2023-10-09T04:43:53;15.67;87.23
80290;SHT30;69592;44.804;-0.550;2023-10-09T04:46:29;15.65;86.72
80290;SHT30;69592;44.804;-0.550;2023-10-09T04:48:56;15.68;86.27
80290;SHT30;69592;44.804;-0.550;2023-10-09T04:51:40;15.67;87.01
80290;SHT30;69592;44.804;-0.550;2023-10-09T04:54:24;15.70;86.88
80290;SHT30;69592;44.804;-0.550;2023-10-09T04:57:04;15.68;86.85
80290;SHT30;69592;44.804;-0.550;2023-10-09T04:59:30;15.70;86.54
80290;SHT30;69592;44.804;-0.550;2023-10-09T05:01:55;15.75;86.11
80290;SHT30;69592;44.804;-0.550;2023-10-09T05:04:27;15.75;86.09
80290;SHT30;69592;44.804;-0.550;2023-10-09T05:07:07;15.70;86.28
80290;SHT30;69592;44.804;-0.550;2023-10-09T05:10:11;15.64;85.88
80290;SHT30;69592;44.804;-0.550;2023-10-09T05:12:43;15.60;86.42
80290;SHT30;69592;44.804;-0.550;2023-10-09T05:15:24;15.51;86.71
80290;SHT30;69592;44.804;-0.550;2023-10-09T05:17:59;15.47;86.84
80290;SHT30;69592;44.804;-0.550;2023-10-09T05:20:35;15.50;86.64
80290;SHT30;69592;44.804;-0.550;2023-10-09T05:23:18;15.37;86.85
80290;SHT30;69592;44.804;-0.550;2023-10-09T05:25:51;15.24;87.12
80290;SHT30;69592;44.804;-0.550;2023-10-09T05:28:20;15.24;87.37
80290;SHT30;69592;44.804;-0.550;2023-10-09T05:31:14;15.20;87.18
80290;SHT30;69592;44.804;-0.550;2023-10-09T05:34:00;15.13;87.68
80290;SHT30;69592;44.804;-0.550;2023-10-09T05:36:27;15.12;87.64
80290;SHT30;69592;44.804;-0.550;2023-10-09T05:38:52;15.07;87.73
80290;SHT30;69592;44.804;-0.550;2023-10-09T05:41:27;15.03;87.71
80290;SHT30;69592;44.804;-0.550;2023-10-09T05:44:11;14.98;88.20
80290;SHT30;69592;44.804;-0.550;2023-10-09T05:46:55;14.96;88.05
80290;SHT30;69592;44.804;-0.550;2023-10-09T05:49:39;14.86;88.34
80290;SHT30;69592;44.804;-0.550;2023-10-09T05:52:23;14.85;88.77
80290;SHT30;69592;44.804;-0.550;2023-10-09T05:55:22;14.88;88.43
80290;SHT30;69592;44.804;-0.550;2023-10-09T05:57:51;14.82;88.96
80290;SHT30;69592;44.804;-0.550;2023-10-09T06:00:23;14.85;89.37
80290;SHT30;69592;44.804;-0.550;2023-10-09T06:03:07;14.95;89.29
80290;SHT30;69592;44.804;-0.550;2023-10-09T06:08:20;14.85;89.93
80290;SHT30;69592;44.804;-0.550;2023-10-09T06:11:03;14.67;90.42
80290;SHT30;69592;44.804;-0.550;2023-10-09T06:13:52;14.72;90.32
80290;SHT30;69592;44.804;-0.550;2023-10-09T06:16:42;14.68;90.27
80290;SHT30;69592;44.804;-0.550;2023-10-09T06:19:10;14.73;90.46
80290;SHT30;69592;44.804;-0.550;2023-10-09T06:21:57;14.68;90.65
80290;SHT30;69592;44.804;-0.550;2023-10-09T06:24:29;14.75;90.37
80290;SHT30;69592;44.804;-0.550;2023-10-09T06:27:11;14.83;90.17
80290;SHT30;69592;44.804;-0.550;2023-10-09T06:29:39;14.75;90.38
80290;SHT30;69592;44.804;-0.550;2023-10-09T06:32:11;14.82;89.97
80290;SHT30;69592;44.804;-0.550;2023-10-09T06:34:50;14.69;90.18
80290;SHT30;69592;44.804;-0.550;2023-10-09T06:37:22;14.73;90.66
80290;SHT30;69592;44.804;-0.550;2023-10-09T06:39:48;14.82;90.96
80290;SHT30;69592;44.804;-0.550;2023-10-09T06:42:36;14.92;90.96
80290;SHT30;69592;44.804;-0.550;2023-10-09T06:45:10;14.95;90.81
80290;SHT30;69592;44.804;-0.550;2023-10-09T06:47:49;14.78;90.96
80290;SHT30;69592;44.804;-0.550;2023-10-09T06:50:22;14.76;90.97
80290;SHT30;69592;44.804;-0.550;2023-10-09T06:52:56;14.75;91.22
80290;SHT30;69592;44.804;-0.550;2023-10-09T06:55:40;14.88;91.20
80290;SHT30;69592;44.804;-0.550;2023-10-09T07:00:50;14.85;91.43
80290;SHT30;69592;44.804;-0.550;2023-10-09T07:03:34;14.79;91.48
80290;SHT30;69592;44.804;-0.550;2023-10-09T07:06:08;14.76;91.47
80290;SHT30;69592;44.804;-0.550;2023-10-09T07:08:53;14.88;91.99
80290;SHT30;69592;44.804;-0.550;2023-10-09T07:11:41;14.85;91.83
80290;SHT30;69592;44.804;-0.550;2023-10-09T07:16:33;14.79;91.77
80290;SHT30;69592;44.804;-0.550;2023-10-09T07:19:05;14.82;91.95
80290;SHT30;69592;44.804;-0.550;2023-10-09T07:21:49;14.76;91.55
80290;SHT30;69592;44.804;-0.550;2023-10-09T07:24:19;14.86;91.95
80290;SHT30;69592;44.804;-0.550;2023-10-09T07:26:50;14.93;91.58
80290;SHT30;69592;44.804;-0.550;2023-10-09T07:29:18;14.99;91.60
80290;SHT30;69592;44.804;-0.550;2023-10-09T07:31:48;15.16;91.57
80290;SHT30;69592;44.804;-0.550;2023-10-09T07:34:22;15.32;90.76
80290;SHT30;69592;44.804;-0.550;2023-10-09T07:37:05;15.47;90.69
80290;SHT30;69592;44.804;-0.550;2023-10-09T07:39:31;15.63;89.94
80290;SHT30;69592;44.804;-0.550;2023-10-09T07:42:04;15.64;90.11
80290;SHT30;69592;44.804;-0.550;2023-10-09T07:44:51;15.78;89.65
80290;SHT30;69592;44.804;-0.550;2023-10-09T07:47:21;15.93;89.34
80290;SHT30;69592;44.804;-0.550;2023-10-09T07:50:09;15.98;89.33
80290;SHT30;69592;44.804;-0.550;2023-10-09T07:52:36;16.08;88.91
80290;SHT30;69592;44.804;-0.550;2023-10-09T07:55:09;16.17;89.49
80290;SHT30;69592;44.804;-0.550;2023-10-09T07:57:54;16.07;89.51
80290;SHT30;69592;44.804;-0.550;2023-10-09T08:00:22;16.05;89.48
80290;SHT30;69592;44.804;-0.550;2023-10-09T08:03:15;16.09;89.48
80290;SHT30;69592;44.804;-0.550;2023-10-09T08:05:51;16.19;89.47
80290;SHT30;69592;44.804;-0.550;2023-10-09T08:08:32;16.32;89.24
80290;SHT30;69592;44.804;-0.550;2023-10-09T08:11:00;16.25;89.07
80290;SHT30;69592;44.804;-0.550;2023-10-09T08:13:45;16.35;88.60
80290;SHT30;69592;44.804;-0.550;2023-10-09T08:16:26;16.38;89.08
80290;SHT30;69592;44.804;-0.550;2023-10-09T08:19:02;16.63;88.58
80290;SHT30;69592;44.804;-0.550;2023-10-09T08:21:45;16.72;87.79
80290;SHT30;69592;44.804;-0.550;2023-10-09T08:24:33;16.76;88.65
80290;SHT30;69592;44.804;-0.550;2023-10-09T08:27:06;16.90;87.71
80290;SHT30;69592;44.804;-0.550;2023-10-09T08:29:50;16.93;87.93
80290;SHT30;69592;44.804;-0.550;2023-10-09T08:32:36;17.06;87.77
80290;SHT30;69592;44.804;-0.550;2023-10-09T08:35:09;17.14;88.26
80290;SHT30;69592;44.804;-0.550;2023-10-09T08:37:53;17.30;87.97
80290;SHT30;69592;44.804;-0.550;2023-10-09T08:40:19;17.44;87.48
80290;SHT30;69592;44.804;-0.550;2023-10-09T08:42:52;17.26;87.44
80290;SHT30;69592;44.804;-0.550;2023-10-09T08:45:22;17.42;87.98
80290;SHT30;69592;44.804;-0.550;2023-10-09T08:47:53;17.54;87.64
80290;SHT30;69592;44.804;-0.550;2023-10-09T08:50:20;17.52;87.62
80290;SHT30;69592;44.804;-0.550;2023-10-09T08:52:48;17.60;87.43
80290;SHT30;69592;44.804;-0.550;2023-10-09T08:55:14;17.58;87.74
80290;SHT30;69592;44.804;-0.550;2023-10-09T08:57:42;17.65;87.42
80290;SHT30;69592;44.804;-0.550;2023-10-09T09:00:16;17.77;87.66
80290;SHT30;69592;44.804;-0.550;2023-10-09T09:02:46;17.91;87.44
80290;SHT30;69592;44.804;-0.550;2023-10-09T09:05:19;17.95;87.00
80290;SHT30;69592;44.804;-0.550;2023-10-09T09:07:51;17.95;87.01
80290;SHT30;69592;44.804;-0.550;2023-10-09T09:10:31;17.86;86.95
80290;SHT30;69592;44.804;-0.550;2023-10-09T09:13:14;18.02;86.83
80290;SHT30;69592;44.804;-0.550;2023-10-09T09:15:46;18.30;86.63
80290;SHT30;69592;44.804;-0.550;2023-10-09T09:18:12;18.30;87.31
80290;SHT30;69592;44.804;-0.550;2023-10-09T09:20:43;18.33;86.69
80290;SHT30;69592;44.804;-0.550;2023-10-09T09:23:11;18.30;86.55
80290;SHT30;69592;44.804;-0.550;2023-10-09T09:25:44;18.53;86.21
80290;SHT30;69592;44.804;-0.550;2023-10-09T09:28:11;18.61;85.95
80290;SHT30;69592;44.804;-0.550;2023-10-09T09:30:38;18.64;85.72
80290;SHT30;69592;44.804;-0.550;2023-10-09T09:33:26;18.55;86.42
80290;SHT30;69592;44.804;-0.550;2023-10-09T09:36:08;18.49;86.46
80290;SHT30;69592;44.804;-0.550;2023-10-09T09:38:37;18.63;85.76
80290;SHT30;69592;44.804;-0.550;2023-10-09T09:41:16;18.71;86.35
80290;SHT30;69592;44.804;-0.550;2023-10-09T09:43:55;18.81;86.64
80290;SHT30;69592;44.804;-0.550;2023-10-09T09:46:34;18.96;85.92
80290;SHT30;69592;44.804;-0.550;2023-10-09T09:49:06;18.97;85.67
80290;SHT30;69592;44.804;-0.550;2023-10-09T09:51:42;19.01;85.64
80290;SHT30;69592;44.804;-0.550;2023-10-09T09:54:12;19.14;86.03
80290;SHT30;69592;44.804;-0.550;2023-10-09T09:56:45;19.29;85.59
80290;SHT30;69592;44.804;-0.550;2023-10-09T09:59:17;19.48;85.12
80290;SHT30;69592;44.804;-0.550;2023-10-09T10:01:49;19.59;84.86
80290;SHT30;69592;44.804;-0.550;2023-10-09T10:04:32;19.72;84.68
80290;SHT30;69592;44.804;-0.550;2023-10-09T10:07:01;19.90;84.30
80290;SHT30;69592;44.804;-0.550;2023-10-09T10:09:38;20.08;83.55
80290;SHT30;69592;44.804;-0.550;2023-10-09T10:12:11;20.14;83.52
80290;SHT30;69592;44.804;-0.550;2023-10-09T10:20:26;20.57;82.61
80290;SHT30;69592;44.804;-0.550;2023-10-09T10:23:18;20.58;82.74
80290;SHT30;69592;44.804;-0.550;2023-10-09T10:25:51;20.57;83.03
80290;SHT30;69592;44.804;-0.550;2023-10-09T10:28:26;20.68;83.11
80290;SHT30;69592;44.804;-0.550;2023-10-09T10:31:10;20.87;82.62
80290;SHT30;69592;44.804;-0.550;2023-10-09T10:36:18;21.09;82.26
80290;SHT30;69592;44.804;-0.550;2023-10-09T10:41:29;21.32;81.69
80290;SHT30;69592;44.804;-0.550;2023-10-09T10:44:01;21.45;81.96
80290;SHT30;69592;44.804;-0.550;2023-10-09T10:46:46;21.56;81.52
80290;SHT30;69592;44.804;-0.550;2023-10-09T10:49:18;21.75;81.93
80290;SHT30;69592;44.804;-0.550;2023-10-09T10:51:48;21.85;81.43
80290;SHT30;69592;44.804;-0.550;2023-10-09T10:54:21;21.96;81.19
80290;SHT30;69592;44.804;-0.550;2023-10-09T10:57:02;22.06;80.73
80290;SHT30;69592;44.804;-0.550;2023-10-09T10:59:39;22.20;81.16
80290;SHT30;69592;44.804;-0.550;2023-10-09T11:02:10;22.28;80.83
80290;SHT30;69592;44.804;-0.550;2023-10-09T11:04:35;22.47;80.25
80290;SHT30;69592;44.804;-0.550;2023-10-09T11:07:05;22.62;80.27
80290;SHT30;69592;44.804;-0.550;2023-10-09T11:09:56;22.64;80.59
80290;SHT30;69592;44.804;-0.550;2023-10-09T11:15:13;22.98;79.38
80290;SHT30;69592;44.804;-0.550;2023-10-09T11:18:04;23.20;79.65
80290;SHT30;69592;44.804;-0.550;2023-10-09T11:20:56;23.29;78.88
80290;SHT30;69592;44.804;-0.550;2023-10-09T11:23:42;23.50;79.29
80290;SHT30;69592;44.804;-0.550;2023-10-09T11:26:24;23.66;78.62
80290;SHT30;69592;44.804;-0.550;2023-10-09T11:29:10;23.77;78.39
80290;SHT30;69592;44.804;-0.550;2023-10-09T11:32:17;23.93;78.30
80290;SHT30;69592;44.804;-0.550;2023-10-09T11:34:48;24.15;77.70
80290;SHT30;69592;44.804;-0.550;2023-10-09T11:37:22;24.31;77.84
80290;SHT30;69592;44.804;-0.550;2023-10-09T11:39:54;24.45;77.33
80290;SHT30;69592;44.804;-0.550;2023-10-09T11:42:22;24.56;77.43
80290;SHT30;69592;44.804;-0.550;2023-10-09T11:45:08;24.68;76.52
80290;SHT30;69592;44.804;-0.550;2023-10-09T11:47:51;24.75;77.00
80290;SHT30;69592;44.804;-0.550;2023-10-09T11:50:45;24.82;76.98
80290;SHT30;69592;44.804;-0.550;2023-10-09T11:53:14;24.90;76.65
80290;SHT30;69592;44.804;-0.550;2023-10-09T11:56:05;25.12;76.25
80290;SHT30;69592;44.804;-0.550;2023-10-09T11:58:30;25.26;75.86
80290;SHT30;69592;44.804;-0.550;2023-10-09T12:00:58;25.44;76.84
80290;SHT30;69592;44.804;-0.550;2023-10-09T12:03:38;25.57;75.31
80290;SHT30;69592;44.804;-0.550;2023-10-09T12:06:04;25.61;75.70
80290;SHT30;69592;44.804;-0.550;2023-10-09T12:08:34;25.80;74.76
80290;SHT30;69592;44.804;-0.550;2023-10-09T12:11:01;25.82;75.03
80290;SHT30;69592;44.804;-0.550;2023-10-09T12:13:33;25.90;75.30
80290;SHT30;69592;44.804;-0.550;2023-10-09T12:15:58;26.06;74.58
80290;SHT30;69592;44.804;-0.550;2023-10-09T12:18:24;26.12;74.25
80290;SHT30;69592;44.804;-0.550;2023-10-09T12:20:50;26.29;74.04
80290;SHT30;69592;44.804;-0.550;2023-10-09T12:23:22;26.39;73.60
80290;SHT30;69592;44.804;-0.550;2023-10-09T12:25:49;26.55;73.65
80290;SHT30;69592;44.804;-0.550;2023-10-09T12:28:15;26.57;73.47
80290;SHT30;69592;44.804;-0.550;2023-10-09T12:30:46;26.69;72.63
80290;SHT30;69592;44.804;-0.550;2023-10-09T12:33:16;26.78;73.00
80290;SHT30;69592;44.804;-0.550;2023-10-09T12:35:41;26.90;71.89
80290;SHT30;69592;44.804;-0.550;2023-10-09T12:38:07;27.00;72.67
80290;SHT30;69592;44.804;-0.550;2023-10-09T12:40:35;27.04;71.90
80290;SHT30;69592;44.804;-0.550;2023-10-09T12:43:04;27.11;72.21
80290;SHT30;69592;44.804;-0.550;2023-10-09T12:45:33;27.26;71.03
80290;SHT30;69592;44.804;-0.550;2023-10-09T12:47:59;27.40;71.37
80290;SHT30;69592;44.804;-0.550;2023-10-09T12:50:25;27.45;70.25
80290;SHT30;69592;44.804;-0.550;2023-10-09T12:52:57;27.61;69.97
80290;SHT30;69592;44.804;-0.550;2023-10-09T12:55:28;27.47;68.44
80290;SHT30;69592;44.804;-0.550;2023-10-09T12:58:00;27.55;69.73
80290;SHT30;69592;44.804;-0.550;2023-10-09T13:00:38;27.77;69.12
80290;SHT30;69592;44.804;-0.550;2023-10-09T13:03:10;27.75;69.18
80290;SHT30;69592;44.804;-0.550;2023-10-09T13:05:51;27.91;69.81
80290;SHT30;69592;44.804;-0.550;2023-10-09T13:08:27;28.12;69.12
80290;SHT30;69592;44.804;-0.550;2023-10-09T13:11:08;28.15;67.03
80290;SHT30;69592;44.804;-0.550;2023-10-09T13:13:39;28.13;67.98
80290;SHT30;69592;44.804;-0.550;2023-10-09T13:16:20;28.26;67.45
80290;SHT30;69592;44.804;-0.550;2023-10-09T13:18:49;28.26;67.28
80290;SHT30;69592;44.804;-0.550;2023-10-09T13:21:19;28.40;67.83
80290;SHT30;69592;44.804;-0.550;2023-10-09T13:23:45;28.46;67.67
80290;SHT30;69592;44.804;-0.550;2023-10-09T13:26:15;28.49;66.83
80290;SHT30;69592;44.804;-0.550;2023-10-09T13:28:48;28.53;67.38
80290;SHT30;69592;44.804;-0.550;2023-10-09T13:31:15;28.69;66.02
80290;SHT30;69592;44.804;-0.550;2023-10-09T13:33:41;28.84;65.67
80290;SHT30;69592;44.804;-0.550;2023-10-09T13:36:11;28.91;65.91
80290;SHT30;69592;44.804;-0.550;2023-10-09T13:38:48;28.96;66.23
80290;SHT30;69592;44.804;-0.550;2023-10-09T13:41:13;29.04;66.22
80290;SHT30;69592;44.804;-0.550;2023-10-09T13:43:40;29.15;65.05
80290;SHT30;69592;44.804;-0.550;2023-10-09T13:46:10;29.17;65.40
80290;SHT30;69592;44.804;-0.550;2023-10-09T13:48:39;29.32;65.28
80290;SHT30;69592;44.804;-0.550;2023-10-09T13:51:07;29.35;64.70
80290;SHT30;69592;44.804;-0.550;2023-10-09T13:53:34;29.37;64.79
80290;SHT30;69592;44.804;-0.550;2023-10-09T13:56:19;29.42;64.53
80290;SHT30;69592;44.804;-0.550;2023-10-09T13:58:51;29.50;64.25
80290;SHT30;69592;44.804;-0.550;2023-10-09T14:01:19;29.61;65.28
80290;SHT30;69592;44.804;-0.550;2023-10-09T14:03:57;29.68;63.98
80290;SHT30;69592;44.804;-0.550;2023-10-09T14:06:23;29.66;64.93
80290;SHT30;69592;44.804;-0.550;2023-10-09T14:09:02;29.72;64.59
80290;SHT30;69592;44.804;-0.550;2023-10-09T14:11:34;29.76;64.54
80290;SHT30;69592;44.804;-0.550;2023-10-09T14:14:05;29.88;64.47
80290;SHT30;69592;44.804;-0.550;2023-10-09T14:16:35;29.82;63.38
80290;SHT30;69592;44.804;-0.550;2023-10-09T14:19:01;29.88;63.35
80290;SHT30;69592;44.804;-0.550;2023-10-09T14:21:32;29.93;63.13
80290;SHT30;69592;44.804;-0.550;2023-10-09T14:23:58;29.85;62.24
80290;SHT30;69592;44.804;-0.550;2023-10-09T14:26:27;29.96;63.28
80290;SHT30;69592;44.804;-0.550;2023-10-09T14:28:53;30.02;62.43
80290;SHT30;69592;44.804;-0.550;2023-10-09T14:31:22;30.01;62.42
80290;SHT30;69592;44.804;-0.550;2023-10-09T14:33:53;30.06;62.57
80290;SHT30;69592;44.804;-0.550;2023-10-09T14:36:19;30.17;62.83
80290;SHT30;69592;44.804;-0.550;2023-10-09T14:38:47;30.06;63.26
80290;SHT30;69592;44.804;-0.550;2023-10-09T14:41:14;30.06;62.59
80290;SHT30;69592;44.804;-0.550;2023-10-09T14:43:39;30.10;62.40
80290;SHT30;69592;44.804;-0.550;2023-10-09T14:46:05;30.17;62.04
80290;SHT30;69592;44.804;-0.550;2023-10-09T14:48:37;30.23;62.81
80290;SHT30;69592;44.804;-0.550;2023-10-09T14:51:03;30.09;61.53
80290;SHT30;69592;44.804;-0.550;2023-10-09T14:53:33;30.09;61.72
80290;SHT30;69592;44.804;-0.550;2023-10-09T14:55:59;30.17;61.97
80290;SHT30;69592;44.804;-0.550;2023-10-09T14:58:27;30.15;60.98
80290;SHT30;69592;44.804;-0.550;2023-10-09T15:00:55;30.20;61.68
80290;SHT30;69592;44.804;-0.550;2023-10-09T15:03:21;30.17;61.76
80290;SHT30;69592;44.804;-0.550;2023-10-09T15:05:48;30.10;61.46
80290;SHT30;69592;44.804;-0.550;2023-10-09T15:08:13;30.15;60.09
80290;SHT30;69592;44.804;-0.550;2023-10-09T15:10:50;30.25;60.87
80290;SHT30;69592;44.804;-0.550;2023-10-09T15:13:21;30.15;61.28
80290;SHT30;69592;44.804;-0.550;2023-10-09T15:15:52;30.02;61.66
80290;SHT30;69592;44.804;-0.550;2023-10-09T15:18:19;29.85;62.75
80290;SHT30;69592;44.804;-0.550;2023-10-09T15:20:47;29.86;62.53
80290;SHT30;69592;44.804;-0.550;2023-10-09T15:23:12;29.90;62.47
80290;SHT30;69592;44.804;-0.550;2023-10-09T15:25:38;29.93;62.43
80290;SHT30;69592;44.804;-0.550;2023-10-09T15:28:05;29.88;62.14
80290;SHT30;69592;44.804;-0.550;2023-10-09T15:30:33;29.81;62.14
80290;SHT30;69592;44.804;-0.550;2023-10-09T15:32:58;29.76;62.15
80290;SHT30;69592;44.804;-0.550;2023-10-09T15:35:24;29.69;62.67
80290;SHT30;69592;44.804;-0.550;2023-10-09T15:37:49;29.64;62.75
80290;SHT30;69592;44.804;-0.550;2023-10-09T15:40:18;29.59;62.78
80290;SHT30;69592;44.804;-0.550;2023-10-09T15:42:48;29.55;63.27
80290;SHT30;69592;44.804;-0.550;2023-10-09T15:45:21;29.42;62.83
80290;SHT30;69592;44.804;-0.550;2023-10-09T15:47:47;29.37;62.52
80290;SHT30;69592;44.804;-0.550;2023-10-09T15:50:13;29.39;63.12
80290;SHT30;69592;44.804;-0.550;2023-10-09T15:52:40;29.22;62.45
80290;SHT30;69592;44.804;-0.550;2023-10-09T15:55:06;29.20;62.62
80290;SHT30;69592;44.804;-0.550;2023-10-09T15:57:39;29.14;62.44
80290;SHT30;69592;44.804;-0.550;2023-10-09T16:00:06;29.12;62.94
80290;SHT30;69592;44.804;-0.550;2023-10-09T16:02:40;29.14;63.27
80290;SHT30;69592;44.804;-0.550;2023-10-09T16:05:06;28.94;62.98
80290;SHT30;69592;44.804;-0.550;2023-10-09T16:07:32;28.86;63.51
80290;SHT30;69592;44.804;-0.550;2023-10-09T16:09:57;28.89;63.77
80290;SHT30;69592;44.804;-0.550;2023-10-09T16:12:24;28.67;63.72
80290;SHT30;69592;44.804;-0.550;2023-10-09T16:14:51;28.64;64.00
80290;SHT30;69592;44.804;-0.550;2023-10-09T16:17:19;28.59;64.08